createdAt,value
2023-02-03T00:00:58.495Z,102228.63
2023-02-03T00:03:25.053Z,102231.19
2023-02-03T00:05:51.687Z,102232.03
2023-02-03T00:08:19.832Z,102214.81
2023-02-03T00:10:46.801Z,102219.97
2023-02-03T00:13:14.290Z,102221.66
2023-02-03T00:15:40.995Z,102217.34
2023-02-03T00:18:07.483Z,102210.44
2023-02-03T00:20:33.951Z,102208.72
2023-02-03T00:23:08.637Z,102219.06
2023-02-03T00:25:35.420Z,102206.13
2023-02-03T00:28:02.037Z,102199.25
2023-02-03T00:30:29.304Z,102202.69
2023-02-03T00:32:55.912Z,102207.00
2023-02-03T00:35:22.886Z,102206.13
2023-02-03T00:37:54.164Z,102192.34
2023-02-03T00:40:22.098Z,102200.94
2023-02-03T00:42:48.836Z,102201.81
2023-02-03T00:45:16.077Z,102214.72
2023-02-03T00:47:42.615Z,102202.66
2023-02-03T00:50:10.580Z,102207.84
2023-02-03T00:52:37.274Z,102201.78
2023-02-03T00:55:04.683Z,102213.84
2023-02-03T00:57:31.184Z,102219.00
2023-02-03T00:59:58.180Z,102226.78
2023-02-03T01:02:25.005Z,102238.81
2023-02-03T01:04:51.545Z,102239.69
2023-02-03T01:07:18.144Z,102251.78
2023-02-03T01:09:44.675Z,102256.13
2023-02-03T01:12:11.213Z,102259.53
2023-02-03T01:14:37.726Z,102263.84
2023-02-03T01:17:04.401Z,102267.28
2023-02-03T01:19:30.939Z,102268.16
2023-02-03T01:21:57.414Z,102266.41
2023-02-03T01:24:23.915Z,102266.41
2023-02-03T01:26:50.512Z,102265.53
2023-02-03T01:29:16.995Z,102269.88
2023-02-03T01:31:43.788Z,102271.59
2023-02-03T01:34:13.939Z,102270.75
2023-02-03T01:36:40.646Z,102262.09
2023-02-03T01:39:07.144Z,102270.69
2023-02-03T01:41:36.413Z,102272.44
2023-02-03T01:44:52.441Z,102268.97
2023-02-03T01:47:25.364Z,102265.53
2023-02-03T01:50:06.621Z,102243.94
2023-02-03T01:52:33.994Z,102254.28
2023-02-03T01:55:04.657Z,102255.16
2023-02-03T01:57:38.316Z,102262.03
2023-02-03T02:00:08.084Z,102268.09
2023-02-03T02:02:34.912Z,102263.78
2023-02-03T02:05:31.638Z,102261.19
2023-02-03T02:08:01.990Z,102250.88
2023-02-03T02:10:32.457Z,102246.50
2023-02-03T02:13:00.633Z,102235.31
2023-02-03T02:15:41.501Z,102235.31
2023-02-03T02:18:28.318Z,102228.41
2023-02-03T02:21:52.129Z,102235.28
2023-02-03T02:24:46.652Z,102210.25
2023-02-03T02:27:37.837Z,102210.25
2023-02-03T02:30:24.037Z,102200.78
2023-02-03T02:33:28.296Z,102210.28
2023-02-03T02:36:03.752Z,102199.91
2023-02-03T02:38:46.838Z,102201.66
2023-02-03T02:41:25.433Z,102203.38
2023-02-03T02:44:03.911Z,102197.34
2023-02-03T02:46:36.535Z,102207.69
2023-02-03T02:49:20.411Z,102210.25
2023-02-03T02:51:48.704Z,102187.84
2023-02-03T02:54:21.157Z,102180.97
2023-02-03T02:56:51.460Z,102184.41
2023-02-03T02:59:18.039Z,102171.47
2023-02-03T03:01:44.931Z,102178.38
2023-02-03T03:04:14.067Z,102178.41
2023-02-03T03:06:57.411Z,102189.56
2023-02-03T03:09:55.559Z,102180.94
2023-02-03T03:12:27.217Z,102210.25
2023-02-03T03:15:00.338Z,102218.88
2023-02-03T03:17:33.563Z,102224.94
2023-02-03T03:20:06.797Z,102206.84
2023-02-03T03:22:40.011Z,102199.91
2023-02-03T03:25:46.039Z,102194.72
2023-02-03T03:28:20.969Z,102178.34
2023-02-03T03:30:47.594Z,102189.56
2023-02-03T03:33:14.141Z,102194.75
2023-02-03T03:35:55.580Z,102199.91
2023-02-03T03:38:32.288Z,102213.72
2023-02-03T03:41:07.165Z,102216.31
2023-02-03T03:43:38.964Z,102220.63
2023-02-03T03:46:21.878Z,102208.53
2023-02-03T03:48:56.587Z,102199.03
2023-02-03T03:51:32.068Z,102192.16
2023-02-03T03:54:03.713Z,102199.06
2023-02-03T03:56:45.347Z,102188.72
2023-02-03T03:59:14.965Z,102193.88
2023-02-03T04:01:42.824Z,102200.78
2023-02-03T04:04:11.175Z,102199.06
2023-02-03T04:06:39.708Z,102198.19
2023-02-03T04:09:06.825Z,102197.28
2023-02-03T04:11:51.783Z,102212.78
2023-02-03T04:14:18.376Z,102207.66
2023-02-03T04:16:44.856Z,102195.59
2023-02-03T04:19:11.327Z,102194.72
2023-02-03T04:21:37.864Z,102182.63
2023-02-03T04:24:04.645Z,102186.91
2023-02-03T04:26:31.224Z,102190.38
2023-02-03T04:28:57.680Z,102187.78
2023-02-03T04:31:24.296Z,102198.97
2023-02-03T04:33:50.830Z,102199.84
2023-02-03T04:36:17.356Z,102203.31
2023-02-03T04:38:44.196Z,102189.47
2023-02-03T04:41:10.723Z,102192.06
2023-02-03T04:43:37.266Z,102198.13
2023-02-03T04:46:03.897Z,102197.25
2023-02-03T04:48:30.383Z,102192.06
2023-02-03T04:51:02.738Z,102188.63
2023-02-03T04:53:30.112Z,102187.72
2023-02-03T04:55:56.883Z,102176.53
2023-02-03T04:58:23.384Z,102180.00
2023-02-03T05:00:49.927Z,102169.59
2023-02-03T05:03:16.440Z,102159.25
2023-02-03T05:05:42.948Z,102159.22
2023-02-03T05:08:09.672Z,102149.78
2023-02-03T05:10:36.178Z,102156.69
2023-02-03T05:13:03.096Z,102158.41
2023-02-03T05:15:29.654Z,102154.13
2023-02-03T05:17:56.251Z,102149.78
2023-02-03T05:20:23.036Z,102149.75
2023-02-03T05:22:49.576Z,102154.13
2023-02-03T05:25:16.339Z,102150.66
2023-02-03T05:27:43.646Z,102159.28
2023-02-03T05:30:10.759Z,102156.66
2023-02-03T05:32:37.304Z,102155.81
2023-02-03T05:35:04.006Z,102166.19
2023-02-03T05:37:30.546Z,102171.34
2023-02-03T05:40:17.083Z,102164.47
2023-02-03T05:42:48.596Z,102177.41
2023-02-03T05:45:15.826Z,102165.28
2023-02-03T05:47:42.548Z,102152.31
2023-02-03T05:50:09.406Z,102168.72
2023-02-03T05:52:35.943Z,102172.16
2023-02-03T05:55:02.587Z,102166.19
2023-02-03T05:57:31.355Z,102163.53
2023-02-03T05:59:58.664Z,102167.84
2023-02-03T06:02:25.187Z,102168.69
2023-02-03T06:04:51.741Z,102148.88
2023-02-03T06:07:18.318Z,102154.91
2023-02-03T06:09:44.836Z,102161.81
2023-02-03T06:12:15.535Z,102157.47
2023-02-03T06:14:42.003Z,102157.47
2023-02-03T06:17:08.585Z,102171.28
2023-02-03T06:19:35.385Z,102172.16
2023-02-03T06:22:01.879Z,102162.66
2023-02-03T06:24:31.495Z,102170.38
2023-02-03T06:26:58.023Z,102165.19
2023-02-03T06:29:24.612Z,102161.72
2023-02-03T06:31:51.471Z,102162.53
2023-02-03T06:34:18.018Z,102174.63
2023-02-03T06:39:16.288Z,102173.72
2023-02-03T06:41:43.821Z,102162.53
2023-02-03T06:44:10.293Z,102174.63
2023-02-03T06:46:36.824Z,102169.44
2023-02-03T06:49:03.374Z,102172.88
2023-02-03T06:51:29.844Z,102172.88
2023-02-03T06:53:56.483Z,102166.00
2023-02-03T06:56:22.993Z,102163.41
2023-02-03T06:58:49.465Z,102172.00
2023-02-03T07:01:16.009Z,102163.38
2023-02-03T07:03:42.747Z,102175.47
2023-02-03T07:06:09.206Z,102172.88
2023-02-03T07:08:35.758Z,102169.44
2023-02-03T07:11:02.357Z,102173.72
2023-02-03T07:13:28.796Z,102186.69
2023-02-03T07:15:55.323Z,102176.31
2023-02-03T07:18:52.863Z,102178.91
2023-02-03T07:21:12.709Z,102162.53
2023-02-03T07:23:39.318Z,102166.78
2023-02-03T07:26:07.742Z,102172.84
2023-02-03T07:28:35.864Z,102168.47
2023-02-03T07:31:04.856Z,102160.66
2023-02-03T07:33:32.053Z,102179.59
2023-02-03T07:35:59.889Z,102167.44
2023-02-03T07:38:29.794Z,102158.78
2023-02-03T07:40:56.676Z,102169.09
2023-02-03T07:43:24.042Z,102167.38
2023-02-03T07:45:50.561Z,102163.94
2023-02-03T07:48:17.544Z,102182.91
2023-02-03T07:50:45.763Z,102176.84
2023-02-03T07:53:12.265Z,102188.03
2023-02-03T07:55:40.008Z,102188.91
2023-02-03T07:58:07.168Z,102185.47
2023-02-03T08:00:34.321Z,102186.25
2023-02-03T08:03:01.399Z,102203.56
2023-02-03T08:05:27.949Z,102204.41
2023-02-03T08:07:54.470Z,102213.91
2023-02-03T08:10:20.929Z,102212.16
2023-02-03T08:12:48.517Z,102203.53
2023-02-03T08:15:15.297Z,102208.69
2023-02-03T08:17:42.488Z,102209.56
2023-02-03T08:20:10.037Z,102212.16
2023-02-03T08:22:36.745Z,102210.34
2023-02-03T08:25:04.086Z,102200.84
2023-02-03T08:27:32.052Z,102201.75
2023-02-03T08:29:58.907Z,102215.53
2023-02-03T08:32:25.703Z,102209.56
2023-02-03T08:34:52.634Z,102218.22
2023-02-03T08:37:22.703Z,102213.00
2023-02-03T08:39:49.199Z,102215.56
2023-02-03T08:42:16.025Z,102212.09
2023-02-03T08:44:44.151Z,102206.09
2023-02-03T08:47:11.457Z,102211.28
2023-02-03T08:49:39.645Z,102213.03
2023-02-03T08:52:08.196Z,102216.50
2023-02-03T08:54:34.883Z,102220.88
2023-02-03T08:57:01.655Z,102217.34
2023-02-03T08:59:29.333Z,102236.31
2023-02-03T09:01:55.835Z,102222.53
2023-02-03T09:04:25.273Z,102215.59
2023-02-03T09:06:54.586Z,102219.06
2023-02-03T09:09:21.943Z,102216.53
2023-02-03T09:11:48.744Z,102215.69
2023-02-03T09:14:15.393Z,102226.00
2023-02-03T09:16:42.126Z,102227.72
2023-02-03T09:19:09.184Z,102230.28
2023-02-03T09:21:39.382Z,102229.41
2023-02-03T09:24:07.521Z,102238.88
2023-02-03T09:26:34.139Z,102244.94
2023-02-03T09:29:00.773Z,102238.88
2023-02-03T09:31:27.351Z,102246.59
2023-02-03T09:33:53.877Z,102233.63
2023-02-03T09:36:20.389Z,102241.38
2023-02-03T09:38:46.901Z,102246.56
2023-02-03T09:41:28.282Z,102244.78
2023-02-03T09:44:06.924Z,102240.56
2023-02-03T09:46:40.247Z,102243.25
2023-02-03T09:49:15.348Z,102246.69
2023-02-03T09:51:47.524Z,102245.00
2023-02-03T09:54:26.629Z,102242.44
2023-02-03T09:56:55.794Z,102246.75
2023-02-03T09:59:23.035Z,102251.97
2023-02-03T10:01:52.721Z,102241.63
2023-02-03T10:04:28.136Z,102230.41
2023-02-03T10:07:14.049Z,102220.84
2023-02-03T10:09:55.732Z,102237.22
2023-02-03T10:12:44.406Z,102242.38
2023-02-03T10:15:41.686Z,102247.53
2023-02-03T10:18:16.363Z,102233.72
2023-02-03T10:20:48.823Z,102236.31
2023-02-03T10:23:20.273Z,102238.81
2023-02-03T10:25:57.505Z,102242.28
2023-02-03T10:28:28.519Z,102235.31
2023-02-03T10:31:04.998Z,102243.09
2023-02-03T10:33:33.175Z,102247.38
2023-02-03T10:36:22.365Z,102256.84
2023-02-03T10:39:11.014Z,102252.56
2023-02-03T10:41:37.795Z,102244.78
2023-02-03T10:44:07.490Z,102249.09
2023-02-03T10:46:37.851Z,102248.19
2023-02-03T10:49:04.372Z,102248.16
2023-02-03T10:51:37.710Z,102240.38
2023-02-03T10:54:04.832Z,102242.06
2023-02-03T10:56:36.425Z,102230.78
2023-02-03T10:59:03.693Z,102241.97
2023-02-03T11:01:49.204Z,102229.00
2023-02-03T11:04:31.817Z,102236.81
2023-02-03T11:07:06.292Z,102237.69
2023-02-03T11:09:41.152Z,102234.19
2023-02-03T11:12:19.389Z,102235.91
2023-02-03T11:14:51.269Z,102243.66
2023-02-03T11:17:36.789Z,102251.44
2023-02-03T11:20:14.543Z,102263.53
2023-02-03T11:22:43.378Z,102254.91
2023-02-03T11:35:57.651Z,102275.63
2023-02-03T11:38:36.647Z,102275.63
2023-02-03T11:41:03.837Z,102271.31
2023-02-03T11:43:30.630Z,102267.00
2023-02-03T11:46:03.552Z,102270.41
2023-02-03T11:48:36.140Z,102273.84
2023-02-03T12:14:57.086Z,102262.59
2023-02-03T12:17:34.729Z,102272.09
2023-02-03T12:20:07.283Z,102268.56
2023-02-03T12:23:10.897Z,102267.69
2023-02-03T12:25:40.387Z,102276.34
2023-02-03T12:28:37.662Z,102289.28
2023-02-03T12:31:12.216Z,102285.88
2023-02-03T12:33:44.738Z,102286.69
2023-02-03T12:36:21.439Z,102279.78
2023-02-03T12:39:13.924Z,102285.81
2023-02-03T12:41:52.409Z,102282.38
2023-02-03T12:44:29.984Z,102270.25
2023-02-03T12:47:05.520Z,102276.31
2023-02-03T12:49:49.445Z,102287.53
2023-02-03T12:52:26.997Z,102281.50
2023-02-03T12:55:15.088Z,102281.44
2023-02-03T12:57:49.985Z,102284.88
2023-02-03T13:00:38.812Z,102277.09
2023-02-03T13:03:25.178Z,102283.13
2023-02-03T13:05:58.892Z,102271.88
2023-02-03T13:08:42.391Z,102281.38
2023-02-03T13:11:39.810Z,102281.41
2023-02-03T13:14:38.286Z,102273.63
2023-02-03T13:17:34.649Z,102278.78
2023-02-03T13:20:06.846Z,102284.00
2023-02-03T13:22:33.335Z,102284.00
2023-02-03T13:25:16.644Z,102275.34
2023-02-03T13:28:11.130Z,102267.56
2023-02-03T13:30:43.500Z,102263.19
2023-02-03T13:33:22.202Z,102268.38
2023-02-03T13:36:09.776Z,102264.91
2023-02-03T13:39:01.716Z,102258.84
2023-02-03T13:41:51.685Z,102248.47
2023-02-03T13:44:24.925Z,102254.50
2023-02-03T13:46:52.900Z,102250.19
2023-02-03T13:49:33.669Z,102263.16
2023-02-03T13:52:00.981Z,102274.41
2023-02-03T13:54:35.506Z,102280.44
2023-02-03T13:57:05.589Z,102273.53
2023-02-03T13:59:38.705Z,102269.22
2023-02-03T14:02:23.503Z,102276.97
2023-02-03T14:04:58.486Z,102283.91
2023-02-03T14:07:33.327Z,102265.72
2023-02-03T14:10:06.319Z,102268.28
2023-02-03T14:12:35.795Z,102273.47
2023-02-03T14:15:19.899Z,102262.19
2023-02-03T14:17:46.553Z,102274.31
2023-02-03T14:20:25.237Z,102281.25
2023-02-03T14:23:01.831Z,102290.75
2023-02-03T14:25:29.481Z,102287.34
2023-02-03T14:28:02.564Z,102308.97
2023-02-03T14:30:29.162Z,102323.72
2023-02-03T14:32:58.730Z,102331.00
2023-02-03T14:35:25.289Z,102378.78
2023-02-03T14:37:54.073Z,102357.41
2023-02-03T14:40:31.375Z,102348.84
2023-02-03T14:43:28.964Z,102349.81
2023-02-03T14:46:43.395Z,102357.59
2023-02-03T14:49:31.395Z,102368.81
2023-02-03T14:52:20.812Z,102364.53
2023-02-03T14:54:50.123Z,102371.41
2023-02-03T14:57:37.514Z,102378.34
2023-02-03T15:00:19.434Z,102379.16
2023-02-03T15:03:10.550Z,102378.28
2023-02-03T15:05:40.204Z,102387.78
2023-02-03T15:08:35.869Z,102392.03
2023-02-03T15:11:30.365Z,102391.16
2023-02-03T15:14:18.239Z,102393.75
2023-02-03T15:16:48.349Z,102394.63
2023-02-03T15:19:18.829Z,102401.53
2023-02-03T15:21:45.613Z,102409.25
2023-02-03T15:24:15.055Z,102406.66
2023-02-03T15:26:47.013Z,102415.22
2023-02-03T15:29:22.061Z,102403.16
2023-02-03T15:31:54.279Z,102405.78
2023-02-03T15:34:30.221Z,102401.47
2023-02-03T15:37:07.012Z,102402.28
2023-02-03T15:39:47.800Z,102401.44
2023-02-03T15:42:24.126Z,102399.69
2023-02-03T15:45:22.444Z,102420.41
2023-02-03T15:47:55.169Z,102415.22
2023-02-03T15:50:57.839Z,102419.56
2023-02-03T15:53:41.080Z,102416.09
2023-02-03T15:56:21.761Z,102414.34
2023-02-03T15:58:49.575Z,102423.84
2023-02-03T16:01:21.961Z,102424.72
2023-02-03T16:03:54.531Z,102416.94
2023-02-03T16:06:40.870Z,102431.59
2023-02-03T16:09:27.494Z,102437.63
2023-02-03T16:12:06.100Z,102446.28
2023-02-03T16:14:35.151Z,102450.59
2023-02-03T16:17:05.809Z,102452.34
2023-02-03T16:19:38.088Z,102454.09
2023-02-03T16:22:04.943Z,102461.00
2023-02-03T16:24:45.711Z,102469.69
2023-02-03T16:27:25.285Z,102467.09
2023-02-03T16:30:22.657Z,102476.56
2023-02-03T16:33:21.977Z,102472.22
2023-02-03T16:36:07.010Z,102471.38
2023-02-03T16:38:52.336Z,102478.31
2023-02-03T16:41:41.785Z,102478.31
2023-02-03T16:44:30.433Z,102490.38
2023-02-03T16:47:16.077Z,102489.53
2023-02-03T16:50:04.061Z,102493.84
2023-02-03T16:52:31.825Z,102504.16
2023-02-03T16:54:59.318Z,102490.38
2023-02-03T16:57:25.963Z,102493.81
2023-02-03T16:59:52.488Z,102511.13
2023-02-03T17:02:19.392Z,102505.91
2023-02-03T17:04:46.370Z,102505.06
2023-02-03T17:07:12.996Z,102509.38
2023-02-03T17:09:39.588Z,102516.28
2023-02-03T17:12:06.517Z,102515.44
2023-02-03T17:14:33.283Z,102521.47
2023-02-03T17:16:59.944Z,102517.13
2023-02-03T17:19:26.679Z,102518.03
2023-02-03T17:21:53.409Z,102516.28
2023-02-03T17:24:20.099Z,102514.56
2023-02-03T17:26:46.545Z,102522.34
2023-02-03T17:29:13.153Z,102524.91
2023-02-03T17:31:39.814Z,102519.78
2023-02-03T17:34:07.325Z,102526.69
2023-02-03T17:36:33.844Z,102540.50
2023-02-03T17:55:08.357Z,102565.56
2023-02-03T17:57:37.595Z,102573.31
2023-02-03T18:00:05.661Z,102577.66
2023-02-03T18:02:32.213Z,102573.34
2023-02-03T18:04:58.729Z,102573.34
2023-02-03T18:07:25.261Z,102569.91
2023-02-03T18:09:51.711Z,102579.41
2023-02-03T18:12:18.284Z,102586.31
2023-02-03T18:14:44.765Z,102588.91
2023-02-03T18:17:11.364Z,102585.47
2023-02-03T18:19:38.309Z,102590.63
2023-02-03T18:22:05.436Z,102599.28
2023-02-03T18:24:32.154Z,102601.03
2023-02-03T18:27:00.487Z,102590.66
2023-02-03T18:29:28.073Z,102604.47
2023-02-03T18:31:55.276Z,102605.34
2023-02-03T18:34:21.804Z,102615.72
2023-02-03T18:36:48.307Z,102615.69
2023-02-03T18:39:15.376Z,102621.72
2023-02-03T18:41:42.857Z,102621.72
2023-02-03T18:44:10.388Z,102624.31
2023-02-03T18:46:37.258Z,102623.50
2023-02-03T18:49:03.998Z,102629.50
2023-02-03T18:51:30.568Z,102626.94
2023-02-03T18:53:58.964Z,102613.13
2023-02-03T18:56:27.653Z,102623.50
2023-02-03T18:58:54.115Z,102614.88
2023-02-03T19:01:26.842Z,102609.72
2023-02-03T19:03:58.635Z,102613.13
2023-02-03T19:06:26.473Z,102612.28
2023-02-03T19:08:52.971Z,102614.91
2023-02-03T19:11:19.815Z,102620.91
2023-02-03T19:13:46.399Z,102623.50
2023-02-03T19:16:14.778Z,102625.25
2023-02-03T19:18:42.274Z,102626.09
2023-02-03T19:21:11.120Z,102629.53
2023-02-03T19:23:41.642Z,102640.75
2023-02-03T19:26:09.840Z,102651.09
2023-02-03T19:28:36.816Z,102649.38
2023-02-03T19:31:08.849Z,102647.66
2023-02-03T19:33:36.697Z,102645.06
2023-02-03T19:36:04.733Z,102663.16
2023-02-03T19:38:31.225Z,102665.75
2023-02-03T19:40:57.777Z,102664.88
2023-02-03T19:43:24.816Z,102659.72
2023-02-03T19:45:51.843Z,102669.22
2023-02-03T19:48:18.843Z,102675.25
2023-02-03T19:50:47.777Z,102685.59
2023-02-03T19:53:16.376Z,102690.78
2023-02-03T19:55:44.104Z,102685.63
2023-02-03T19:58:12.082Z,102690.78
2023-02-03T20:00:39.037Z,102701.97
2023-02-03T20:03:05.790Z,102707.19
2023-02-03T20:05:33.819Z,102703.72
2023-02-03T20:08:00.357Z,102713.22
2023-02-03T20:10:27.029Z,102715.78
2023-02-03T20:12:54.435Z,102717.53
2023-02-03T20:15:21.650Z,102715.78
2023-02-03T20:17:48.301Z,102720.13
2023-02-03T20:20:16.340Z,102705.44
2023-02-03T20:22:42.830Z,102702.88
2023-02-03T20:25:09.721Z,102716.66
2023-02-03T20:27:36.291Z,102717.53
2023-02-03T20:30:04.157Z,102718.41
2023-02-03T20:32:30.895Z,102719.25
2023-02-03T20:34:57.739Z,102714.94
2023-02-03T20:37:24.236Z,102722.69
2023-02-03T20:39:50.802Z,102723.56
2023-02-03T20:42:17.990Z,102730.47
2023-02-03T20:44:47.022Z,102733.03
2023-02-03T20:47:18.437Z,102728.75
2023-02-03T20:49:45.532Z,102731.34
2023-02-03T20:52:17.785Z,102727.88
2023-02-03T20:54:44.447Z,102736.50
2023-02-03T20:57:16.217Z,102734.78
2023-02-03T20:59:44.565Z,102733.06
2023-02-03T21:02:52.138Z,102739.09
2023-02-03T21:05:26.064Z,102737.34
2023-02-03T21:07:52.591Z,102741.69
2023-02-03T21:10:21.518Z,102739.09
2023-02-03T21:12:48.821Z,102749.44
2023-02-03T21:15:27.357Z,102749.44
2023-02-03T21:17:54.696Z,102764.97
2023-02-03T21:20:28.085Z,102766.69
2023-02-03T21:22:56.323Z,102767.56
2023-02-03T21:25:32.181Z,102762.38
2023-02-03T21:28:00.259Z,102756.34
2023-02-03T21:30:33.200Z,102755.47
2023-02-03T21:33:01.439Z,102759.78
2023-02-03T21:35:37.480Z,102766.69
2023-02-03T21:38:31.443Z,102766.69
2023-02-03T21:40:58.826Z,102761.53
2023-02-03T21:43:25.349Z,102757.22
2023-02-03T21:45:51.939Z,102766.69
2023-02-03T21:48:27.803Z,102780.47
2023-02-03T21:50:56.929Z,102781.34
2023-02-03T21:53:26.883Z,102774.44
2023-02-03T21:55:53.961Z,102768.41
2023-02-03T21:58:40.020Z,102766.69
2023-02-03T22:01:07.139Z,102774.44
2023-02-03T22:03:43.443Z,102768.41
2023-02-03T22:06:09.934Z,102768.44
2023-02-03T22:08:38.682Z,102783.94
2023-02-03T22:11:05.353Z,102784.81
2023-02-03T22:13:32.017Z,102784.81
2023-02-03T22:15:58.888Z,102786.53
2023-02-03T22:18:26.052Z,102782.22
2023-02-03T22:20:52.928Z,102784.78
2023-02-03T22:23:20.074Z,102794.28
2023-02-03T22:25:47.017Z,102801.16
2023-02-03T22:28:13.883Z,102807.22
2023-02-03T22:30:40.518Z,102808.94
2023-02-03T22:33:07.119Z,102803.78
2023-02-03T22:35:33.678Z,102795.16
2023-02-03T22:38:00.165Z,102804.63
2023-02-03T22:40:26.820Z,102819.28
2023-02-03T22:42:53.432Z,102825.34
2023-02-03T22:45:21.863Z,102827.06
2023-02-03T22:47:48.321Z,102826.19
2023-02-03T22:50:17.479Z,102816.72
2023-02-03T22:52:47.025Z,102822.75
2023-02-03T22:55:13.496Z,102812.41
2023-02-03T22:57:41.381Z,102830.50
2023-02-03T23:00:12.348Z,102840.84
2023-02-03T23:02:39.869Z,102839.13
2023-02-03T23:05:08.368Z,102839.97
2023-02-03T23:07:36.086Z,102852.91
2023-02-03T23:10:04.016Z,102852.06
2023-02-03T23:12:30.537Z,102837.41
2023-02-03T23:14:57.003Z,102850.31
2023-02-03T23:17:23.455Z,102859.81
2023-02-03T23:19:49.954Z,102859.78
2023-02-03T23:22:16.473Z,102870.13
2023-02-03T23:24:43.416Z,102870.13
2023-02-03T23:27:09.998Z,102870.13
2023-02-03T23:29:38.199Z,102869.31
2023-02-03T23:32:05.709Z,102868.44
2023-02-03T23:34:51.321Z,102872.72
2023-02-03T23:37:17.887Z,102873.59
2023-02-03T23:39:44.462Z,102877.03
2023-02-03T23:42:10.929Z,102877.91
2023-02-03T23:44:37.397Z,102877.03
2023-02-03T23:47:03.942Z,102882.22
2023-02-03T23:49:31.421Z,102892.56
2023-02-03T23:51:58.696Z,102902.03
2023-02-03T23:54:25.563Z,102898.59
2023-02-03T23:56:52.791Z,102898.63
2023-02-03T23:59:19.726Z,102902.06
